Time;durP1;ratioP1;P1;durP2;ratioP2;P2;SDS_P1;SDS_P2;PMS_P1;PMS_P2;Temp;Humidity;BMP_temperature;BMP_pressure;BME280_temperature;BME280_humidity;BME280_pressure;Samples;Min_cycle;Max_cycle;Signal;HPM_P1;HPM_P2
2023/10/01 00:00:17;;;;;;;;;;;;;;;7.22;100.00;100633.22;5026286;28;19952;-80
2023/10/01 00:02:42;;;;;;;;;;;;;;;7.31;100.00;100631.34;5026789;28;20426;-88
2023/10/01 00:05:09;;;;;;;;;;;;;;;7.31;100.00;100636.63;5025450;28;19921;-89
2023/10/01 00:07:37;;;;;;;;;;;;;;;7.37;100.00;100628.59;5027692;28;20280;-88
2023/10/01 00:10:10;;;;;;;;;;;;;;;7.41;100.00;100623.25;5027692;28;19921;-82
2023/10/01 00:12:39;;;;;;;;;;;;;;;7.45;100.00;100629.34;5027168;28;19918;-80
2023/10/01 00:15:10;;;;;;;;;;;;;;;7.51;100.00;100634.53;5024355;28;19928;-78
2023/10/01 00:17:36;;;;;;;;;;;;;;;7.56;100.00;100632.72;5024461;28;20553;-89
2023/10/01 00:20:09;;;;;;;;;;;;;;;7.61;100.00;100632.59;5022898;28;19917;-89
2023/10/01 00:22:37;;;;;;;;;;;;;;;7.60;100.00;100625.59;5023406;28;19941;-86
2023/10/01 00:25:04;;;;;;;;;;;;;;;7.67;100.00;100632.50;5024730;28;19917;-87
2023/10/01 00:27:29;;;;;;;;;;;;;;;7.71;100.00;100628.91;5023772;28;19925;-82
2023/10/01 00:29:55;;;;;;;;;;;;;;;7.72;100.00;100629.78;5023210;28;19922;-88
2023/10/01 00:32:21;;;;;;;;;;;;;;;7.76;100.00;100634.97;5024456;28;19917;-82
2023/10/01 00:34:47;;;;;;;;;;;;;;;7.75;100.00;100635.88;5023040;28;19932;-78
2023/10/01 00:37:12;;;;;;;;;;;;;;;7.78;100.00;100630.53;5023856;28;20280;-82
2023/10/01 00:39:40;;;;;;;;;;;;;;;7.80;100.00;100626.13;5023775;28;20030;-92
2023/10/01 00:42:08;;;;;;;;;;;;;;;7.80;100.00;100626.13;5024239;28;19921;-87
2023/10/01 00:44:34;;;;;;;;;;;;;;;7.81;100.00;100625.22;5023817;28;20422;-79
2023/10/01 00:47:00;;;;;;;;;;;;;;;7.85;100.00;100618.13;5023565;28;19928;-81
2023/10/01 00:49:25;;;;;;;;;;;;;;;7.87;100.00;100618.09;5022714;28;19917;-84
2023/10/01 00:51:51;;;;;;;;;;;;;;;7.87;100.00;100608.41;5022877;28;20360;-81
2023/10/01 00:54:16;;;;;;;;;;;;;;;7.91;100.00;100606.56;5023962;28;19926;-81
2023/10/01 00:56:43;;;;;;;;;;;;;;;7.95;100.00;100595.06;5024192;28;19973;-90
2023/10/01 00:59:10;;;;;;;;;;;;;;;7.96;100.00;100596.78;5021860;28;19997;-80
2023/10/01 01:01:35;;;;;;;;;;;;;;;7.96;100.00;100596.78;5022579;28;19945;-81
2023/10/01 01:04:07;;;;;;;;;;;;;;;7.99;100.00;100596.72;5022550;28;19916;-80
2023/10/01 01:06:36;;;;;;;;;;;;;;;7.97;100.00;100598.53;5023536;28;19969;-79
2023/10/01 01:09:02;;;;;;;;;;;;;;;7.98;100.00;100601.16;5023633;28;20331;-81
2023/10/01 01:11:27;;;;;;;;;;;;;;;8.01;100.00;100600.22;5023678;28;19921;-79
2023/10/01 01:13:52;;;;;;;;;;;;;;;8.03;100.00;100597.56;5024173;28;19917;-80
2023/10/01 01:16:21;;;;;;;;;;;;;;;8.07;100.00;100601.88;5024128;28;19922;-81
2023/10/01 01:18:47;;;;;;;;;;;;;;;8.08;100.00;100595.69;5022907;28;20016;-81
2023/10/01 01:21:13;;;;;;;;;;;;;;;8.07;100.00;100599.22;5022831;28;19921;-83
2023/10/01 01:23:41;;;;;;;;;;;;;;;8.12;100.00;100598.25;5022718;28;19921;-81
2023/10/01 01:26:07;;;;;;;;;;;;;;;8.08;100.00;100595.69;5023848;28;20011;-82
2023/10/01 01:28:32;;;;;;;;;;;;;;;8.05;100.00;100595.75;5022293;28;20008;-80
2023/10/01 01:30:59;;;;;;;;;;;;;;;8.07;100.00;100594.81;5023311;28;20000;-91
2023/10/01 01:33:31;;;;;;;;;;;;;;;8.07;100.00;100586.88;5023488;28;20385;-82
2023/10/01 01:35:57;;;;;;;;;;;;;;;8.10;100.00;100589.47;5023466;28;19925;-82
2023/10/01 01:38:23;;;;;;;;;;;;;;;8.14;100.00;100580.59;5023397;28;19971;-80
2023/10/01 01:40:51;;;;;;;;;;;;;;;8.16;100.00;100580.56;5023563;28;19924;-81
2023/10/01 01:43:16;;;;;;;;;;;;;;;8.16;100.00;100577.94;5023210;28;19918;-80
2023/10/01 01:45:45;;;;;;;;;;;;;;;8.22;100.00;100574.28;5023013;28;20052;-82
2023/10/01 01:50:55;;;;;;;;;;;;;;;8.27;100.00;100585.66;5023694;28;19922;-79
2023/10/01 01:53:21;;;;;;;;;;;;;;;8.27;100.00;100590.91;5022939;28;20505;-86
2023/10/01 07:47:04;;;;;;;;;;;;;;;6.32;100.00;100638.00;5035539;23;19929;-88
2023/10/01 07:49:48;;;;;;;;;;;;;;;6.25;100.00;100631.03;5024549;28;19930;-85
2023/10/01 07:52:17;;;;;;;;;;;;;;;6.27;100.00;100645.94;5025831;28;19952;-86
2023/10/01 07:54:43;;;;;;;;;;;;;;;6.21;100.00;100642.47;5040651;28;19944;-88
2023/10/01 07:57:09;;;;;;;;;;;;;;;6.19;100.00;100639.91;5025245;28;19921;-88
2023/10/01 07:59:35;;;;;;;;;;;;;;;6.18;100.00;100640.78;5023142;28;19917;-88
2023/10/01 08:02:22;;;;;;;;;;;;;;;6.14;100.00;100633.78;5025515;28;19922;-88
2023/10/01 08:07:15;;;;;;;;;;;;;;;6.21;100.00;100635.47;5025513;28;19925;-88
2023/10/01 08:09:46;;;;;;;;;;;;;;;6.07;100.00;100630.38;5024110;28;19921;-89
2023/10/01 08:12:14;;;;;;;;;;;;;;;6.06;100.00;100638.28;5024931;28;19921;-87
2023/10/01 08:14:40;;;;;;;;;;;;;;;6.01;100.00;100640.94;5023845;28;19921;-89
2023/10/01 08:17:07;;;;;;;;;;;;;;;6.07;100.00;100647.91;5024706;28;20430;-86
2023/10/01 08:19:45;;;;;;;;;;;;;;;6.05;100.00;100642.66;5024926;28;20023;-89
2023/10/01 08:22:13;;;;;;;;;;;;;;;6.02;100.00;100649.72;5024271;28;20008;-89
2023/10/01 08:24:39;;;;;;;;;;;;;;;6.10;100.00;100645.25;5025400;28;19928;-87
2023/10/01 08:27:12;;;;;;;;;;;;;;;6.03;100.00;100646.19;5024902;28;19963;-87
2023/10/01 08:32:24;;;;;;;;;;;;;;;5.97;100.00;100645.38;5025323;28;19928;-87
2023/10/01 08:35:34;;;;;;;;;;;;;;;5.97;100.00;100644.53;5022487;28;20414;-89
2023/10/01 08:37:38;;;;;;;;;;;;;;;6.02;100.00;100637.44;5019209;28;19953;-89
2023/10/01 08:40:13;;;;;;;;;;;;;;;5.99;100.00;100650.63;5023158;28;20338;-92
2023/10/01 08:42:43;;;;;;;;;;;;;;;6.06;100.00;100654.06;5023635;28;19940;-87
2023/10/01 08:45:11;;;;;;;;;;;;;;;6.05;100.00;100647.03;5022240;28;20419;-87
2023/10/01 08:47:37;;;;;;;;;;;;;;;5.99;100.00;100654.13;5024588;28;20380;-86
2023/10/01 08:50:19;;;;;;;;;;;;;;;6.00;100.00;100650.59;5024669;28;19966;-87
2023/10/01 08:52:55;;;;;;;;;;;;;;;6.03;100.00;100654.09;5024084;28;19975;-87
2023/10/01 08:58:14;;;;;;;;;;;;;;;6.06;100.00;100648.78;5023535;28;19961;-88
2023/10/01 09:00:48;;;;;;;;;;;;;;;6.07;100.00;100640.88;5023061;28;19917;-87
2023/10/01 09:03:26;;;;;;;;;;;;;;;6.04;100.00;100645.31;5022111;28;19921;-86
2023/10/01 09:06:01;;;;;;;;;;;;;;;6.05;100.00;100632.16;5022601;28;19924;-88
2023/10/01 09:08:43;;;;;;;;;;;;;;;5.98;100.00;100625.19;5023959;28;19975;-87
2023/10/01 09:11:13;;;;;;;;;;;;;;;5.98;100.00;100636.63;5023898;28;19917;-88
2023/10/01 09:13:44;;;;;;;;;;;;;;;6.04;100.00;100632.16;5023799;28;19913;-84
2023/10/01 09:16:11;;;;;;;;;;;;;;;6.07;100.00;100637.41;5022839;28;19917;-85
2023/10/01 09:18:37;;;;;;;;;;;;;;;6.06;100.00;100635.63;5024018;28;20023;-85
2023/10/01 09:21:06;;;;;;;;;;;;;;;6.02;100.00;100633.94;5023441;28;19972;-86
2023/10/01 09:23:54;;;;;;;;;;;;;;;5.97;100.00;100645.38;5023690;28;19914;-86
2023/10/01 09:26:53;;;;;;;;;;;;;;;6.06;100.00;100633.00;5023604;28;19918;-86
2023/10/01 09:29:21;;;;;;;;;;;;;;;6.07;100.00;100629.50;5023545;28;19984;-87
2023/10/01 09:31:53;;;;;;;;;;;;;;;6.06;100.00;100635.63;5022575;28;20351;-87
2023/10/01 09:34:31;;;;;;;;;;;;;;;6.07;100.00;100635.63;5023482;28;20265;-87
2023/10/01 09:36:57;;;;;;;;;;;;;;;6.03;100.00;100627.78;5021743;28;19949;-88
2023/10/01 09:39:34;;;;;;;;;;;;;;;6.04;100.00;100625.13;5022476;28;20015;-87
2023/10/01 09:42:01;;;;;;;;;;;;;;;6.01;100.00;100619.91;5023314;28;20388;-87
2023/10/01 12:55:51;;;;;;;;;;;;;;;6.19;100.00;100466.22;5527034;23;20624;-82
2023/10/01 12:58:18;;;;;;;;;;;;;;;6.16;100.00;100455.72;5012785;28;20395;-84
2023/10/01 13:00:44;;;;;;;;;;;;;;;6.08;100.00;100458.47;5013574;28;19928;-81
2023/10/01 13:03:16;;;;;;;;;;;;;;;6.27;100.00;100456.44;5013697;28;19971;-80
2023/10/01 13:05:43;;;;;;;;;;;;;;;6.25;100.00;100450.31;5012779;28;19929;-82
2023/10/01 13:08:10;;;;;;;;;;;;;;;6.20;100.00;100443.38;5012760;28;19976;-80
2023/10/01 13:10:38;;;;;;;;;;;;;;;6.24;100.00;100442.44;5013195;28;19924;-85
2023/10/01 13:13:05;;;;;;;;;;;;;;;6.24;100.00;100438.06;5013487;28;20387;-82
2023/10/01 13:15:33;;;;;;;;;;;;;;;6.25;100.00;100445.03;5012719;28;19925;-85
2023/10/01 13:18:04;;;;;;;;;;;;;;;6.23;100.00;100435.44;5012633;28;20276;-83
2023/10/01 13:20:30;;;;;;;;;;;;;;;6.26;100.00;100431.00;5013075;28;19979;-82
2023/10/01 13:22:59;;;;;;;;;;;;;;;6.34;100.00;100429.13;5011636;28;19925;-81
2023/10/01 13:25:28;;;;;;;;;;;;;;;6.31;100.00;100428.31;5012847;28;20296;-80
2023/10/01 13:28:06;;;;;;;;;;;;;;;6.30;100.00;100432.72;5013161;28;20008;-81
2023/10/01 13:30:51;;;;;;;;;;;;;;;6.29;100.00;100430.09;5012948;28;20360;-81
2023/10/01 13:33:19;;;;;;;;;;;;;;;6.30;100.00;100430.06;5013777;28;20008;-85
2023/10/01 13:35:55;;;;;;;;;;;;;;;6.29;100.00;100430.97;5012765;28;19921;-82
2023/10/01 13:38:52;;;;;;;;;;;;;;;6.36;100.00;100421.19;5011751;28;19918;-81
2023/10/01 14:11:02;;;;;;;;;;;;;;;6.39;100.00;100380.81;5011291;28;19967;-83
2023/10/01 14:13:34;;;;;;;;;;;;;;;6.41;100.00;100376.38;5013244;28;19917;-78
2023/10/01 14:16:12;;;;;;;;;;;;;;;6.39;100.00;100380.81;5012938;28;20313;-80
2023/10/01 14:18:40;;;;;;;;;;;;;;;6.48;100.00;100380.66;5011167;28;19968;-84
2023/10/01 14:21:15;;;;;;;;;;;;;;;6.39;100.00;100373.78;5010640;28;19926;-80
2023/10/01 14:23:42;;;;;;;;;;;;;;;6.47;100.00;100376.28;5011371;28;19945;-80
2023/10/01 14:26:12;;;;;;;;;;;;;;;6.40;100.00;100369.38;5011638;28;20443;-79
2023/10/01 14:28:38;;;;;;;;;;;;;;;6.40;100.00;100365.00;5012585;28;19926;-80
2023/10/01 14:31:05;;;;;;;;;;;;;;;6.22;100.00;100371.41;5012673;28;19921;-80
2023/10/01 14:33:31;;;;;;;;;;;;;;;6.15;100.00;100375.03;5012542;28;19917;-80
2023/10/01 14:36:03;;;;;;;;;;;;;;;6.10;100.00;100368.97;5012175;28;20285;-80
2023/10/01 14:38:37;;;;;;;;;;;;;;;6.06;100.00;100369.91;5010336;28;19929;-80
2023/10/01 14:41:04;;;;;;;;;;;;;;;6.08;100.00;100368.13;5010736;28;19969;-80
2023/10/01 14:43:29;;;;;;;;;;;;;;;6.11;100.00;100358.44;5011327;28;19913;-83
2023/10/01 14:45:54;;;;;;;;;;;;;;;6.24;100.00;100355.59;5011259;28;19918;-83
2023/10/01 14:48:22;;;;;;;;;;;;;;;6.28;100.00;100365.19;5011689;28;20383;-82
2023/10/01 14:50:48;;;;;;;;;;;;;;;6.26;100.00;100362.56;5027251;28;19948;-81
2023/10/01 14:53:14;;;;;;;;;;;;;;;6.32;100.00;100361.63;5011872;28;20632;-83
2023/10/01 14:55:43;;;;;;;;;;;;;;;6.24;100.00;100360.84;5007376;28;20015;-83
2023/10/01 14:58:12;;;;;;;;;;;;;;;6.30;100.00;100363.38;5011900;28;19921;-81
2023/10/01 15:00:49;;;;;;;;;;;;;;;6.30;100.00;100360.75;5011584;28;19929;-82
2023/10/01 15:03:18;;;;;;;;;;;;;;;6.11;100.00;100358.44;5010888;28;20261;-81
2023/10/01 15:05:44;;;;;;;;;;;;;;;6.09;100.00;100354.94;5012229;28;20051;-80
2023/10/01 15:08:09;;;;;;;;;;;;;;;6.09;100.00;100356.72;5011385;28;20012;-81
2023/10/01 15:10:34;;;;;;;;;;;;;;;6.14;100.00;100362.75;5011232;28;19917;-80
2023/10/01 15:13:02;;;;;;;;;;;;;;;6.17;100.00;100360.09;5011354;28;19930;-82
2023/10/01 15:15:41;;;;;;;;;;;;;;;6.20;100.00;100361.81;5011162;28;19921;-81
2023/10/01 15:18:13;;;;;;;;;;;;;;;6.19;100.00;100360.94;5012070;28;19996;-81
2023/10/01 15:20:49;;;;;;;;;;;;;;;6.32;100.00;100364.25;5009786;28;20335;-80
2023/10/01 15:23:15;;;;;;;;;;;;;;;6.38;100.00;100355.38;5011304;28;20379;-81
2023/10/01 15:25:41;;;;;;;;;;;;;;;6.35;100.00;100359.81;5011011;28;20359;-80
2023/10/01 15:28:09;;;;;;;;;;;;;;;6.33;100.00;100353.69;5011550;28;19945;-82
2023/10/01 15:30:38;;;;;;;;;;;;;;;6.34;100.00;100357.19;5011402;28;19926;-81
2023/10/01 15:33:15;;;;;;;;;;;;;;;6.41;100.00;100352.69;5011313;28;19918;-80
2023/10/01 15:36:05;;;;;;;;;;;;;;;6.29;100.00;100351.16;5011735;28;19975;-81
2023/10/01 15:38:35;;;;;;;;;;;;;;;6.30;100.00;100351.13;5010195;28;20280;-79
2023/10/01 15:41:01;;;;;;;;;;;;;;;6.23;100.00;100349.47;5011125;28;19918;-80
2023/10/01 15:43:26;;;;;;;;;;;;;;;6.35;100.00;100340.47;5011959;28;19913;-80
2023/10/01 15:45:52;;;;;;;;;;;;;;;6.29;100.00;100335.34;5012334;28;19925;-79
2023/10/01 15:48:20;;;;;;;;;;;;;;;6.24;100.00;100337.16;5016113;28;19913;-79
2023/10/01 15:50:46;;;;;;;;;;;;;;;6.26;100.00;100340.66;5015612;28;19928;-80
2023/10/01 15:53:18;;;;;;;;;;;;;;;6.29;100.00;100335.34;5013582;28;20347;-79
2023/10/01 15:55:55;;;;;;;;;;;;;;;6.25;100.00;100337.13;5013904;28;20340;-80
2023/10/01 15:58:24;;;;;;;;;;;;;;;6.27;100.00;100337.13;5014374;28;20016;-80
2023/10/01 16:00:52;;;;;;;;;;;;;;;6.34;100.00;100339.63;5015247;28;20273;-81
2023/10/01 16:03:25;;;;;;;;;;;;;;;6.13;100.00;100337.34;5014462;28;20451;-79
2023/10/01 16:05:56;;;;;;;;;;;;;;;6.06;100.00;100338.34;5015932;28;19952;-79
2023/10/01 16:08:22;;;;;;;;;;;;;;;6.09;100.00;100343.56;5014606;28;19917;-79
2023/10/01 16:10:48;;;;;;;;;;;;;;;6.07;100.00;100337.44;5013772;28;19976;-79
2023/10/01 16:13:15;;;;;;;;;;;;;;;6.08;100.00;100341.81;5015294;28;20292;-81
2023/10/01 16:15:48;;;;;;;;;;;;;;;6.08;100.00;100336.53;5029364;28;20328;-80
2023/10/01 16:18:14;;;;;;;;;;;;;;;6.11;100.00;100340.00;5013196;28;19925;-79
2023/10/01 16:20:40;;;;;;;;;;;;;;;6.15;100.00;100338.19;5015283;28;20420;-82
2023/10/01 16:23:14;;;;;;;;;;;;;;;6.13;100.00;100342.63;5013823;28;19957;-82
2023/10/01 16:25:43;;;;;;;;;;;;;;;6.14;100.00;100342.59;5013355;28;19921;-79
2023/10/01 16:28:19;;;;;;;;;;;;;;;6.13;100.00;100335.59;5014184;28;19928;-79
2023/10/01 16:31:01;;;;;;;;;;;;;;;6.13;100.00;100345.25;5013161;28;19917;-81
2023/10/01 16:33:31;;;;;;;;;;;;;;;6.18;100.00;100346.03;5014700;28;19917;-81
2023/10/01 16:36:01;;;;;;;;;;;;;;;6.16;100.00;100345.22;5014016;28;19932;-82
2023/10/01 16:38:26;;;;;;;;;;;;;;;6.18;100.00;100343.41;5012965;28;19929;-80
2023/10/01 16:40:52;;;;;;;;;;;;;;;6.24;100.00;100337.16;5013721;28;19941;-81
2023/10/01 16:43:19;;;;;;;;;;;;;;;6.18;100.00;100335.50;5013749;28;19956;-81
2023/10/01 16:45:45;;;;;;;;;;;;;;;6.19;100.00;100334.63;5013186;28;20383;-81
2023/10/01 16:48:10;;;;;;;;;;;;;;;6.23;100.00;100331.03;5014754;28;19957;-83
2023/10/01 16:53:35;;;;;;;;;;;;;;;6.24;100.00;100326.63;4998043;28;20364;-80
2023/10/01 16:56:13;;;;;;;;;;;;;;;6.24;100.00;100321.38;5013118;28;20015;-83
2023/10/01 16:58:41;;;;;;;;;;;;;;;6.24;100.00;100324.91;5013312;28;19929;-82
2023/10/01 17:01:13;;;;;;;;;;;;;;;6.22;100.00;100324.03;5013852;28;19929;-82
2023/10/01 17:03:59;;;;;;;;;;;;;;;6.23;100.00;100311.75;5013872;28;19925;-82
2023/10/01 17:06:25;;;;;;;;;;;;;;;6.25;100.00;100320.50;5010391;28;20368;-83
2023/10/01 17:09:11;;;;;;;;;;;;;;;6.28;100.00;100320.44;5013596;28;19933;-82
2023/10/01 17:11:37;;;;;;;;;;;;;;;6.44;100.00;100313.16;5012935;28;19971;-85
2023/10/01 17:14:11;;;;;;;;;;;;;;;6.66;100.00;100311.00;5012295;28;20435;-81
2023/10/01 17:16:44;;;;;;;;;;;;;;;6.45;100.00;100317.53;5011885;28;19928;-80
2023/10/01 17:19:10;;;;;;;;;;;;;;;6.39;100.00;100318.50;5013615;28;19955;-81
2023/10/01 17:21:36;;;;;;;;;;;;;;;6.34;100.00;100312.44;5011166;28;19996;-82
2023/10/01 17:24:06;;;;;;;;;;;;;;;6.34;100.00;100313.31;5013757;28;20051;-80
2023/10/01 17:26:50;;;;;;;;;;;;;;;6.42;100.00;100320.22;5012614;28;19921;-86
2023/10/01 17:29:26;;;;;;;;;;;;;;;6.38;100.00;100313.25;5014037;28;20471;-84
2023/10/01 17:31:55;;;;;;;;;;;;;;;6.39;100.00;100317.63;5011945;28;19968;-84
2023/10/01 17:34:24;;;;;;;;;;;;;;;6.32;100.00;100320.38;5013335;28;20000;-83
2023/10/01 17:36:53;;;;;;;;;;;;;;;6.34;100.00;100318.56;5012902;28;20403;-85
2023/10/01 17:39:27;;;;;;;;;;;;;;;6.40;100.00;100311.47;5013662;28;19979;-81
2023/10/01 17:41:57;;;;;;;;;;;;;;;6.38;100.00;100319.38;5013524;28;19921;-81
2023/10/01 17:44:26;;;;;;;;;;;;;;;6.40;100.00;100324.63;5012210;28;19922;-80
2023/10/01 17:46:56;;;;;;;;;;;;;;;6.41;100.00;100329.00;5013287;28;20479;-82
2023/10/01 17:49:26;;;;;;;;;;;;;;;6.40;100.00;100327.25;5012947;28;19921;-82
2023/10/01 17:51:54;;;;;;;;;;;;;;;6.41;100.00;100329.84;5012985;28;19952;-83
2023/10/01 17:54:20;;;;;;;;;;;;;;;6.44;100.00;100331.59;5007637;28;19930;-80
2023/10/01 17:56:45;;;;;;;;;;;;;;;6.48;100.00;100334.13;5007523;28;19932;-81
2023/10/01 17:59:18;;;;;;;;;;;;;;;6.47;100.00;100336.78;5008029;28;19932;-82
2023/10/01 18:02:05;;;;;;;;;;;;;;;6.44;100.00;100339.47;5005444;28;19972;-90
2023/10/01 18:04:38;;;;;;;;;;;;;;;6.51;100.00;100346.34;5011046;28;20360;-87
2023/10/01 18:07:04;;;;;;;;;;;;;;;6.51;100.00;100349.00;5008818;28;20304;-81
2023/10/01 18:09:31;;;;;;;;;;;;;;;6.46;100.00;100343.84;5006089;28;20323;-83
2023/10/01 18:12:02;;;;;;;;;;;;;;;6.47;100.00;100350.81;5008203;28;19925;-81
2023/10/01 18:14:33;;;;;;;;;;;;;;;6.49;100.00;100354.31;5006848;28;19929;-80
2023/10/01 18:16:59;;;;;;;;;;;;;;;6.52;100.00;100359.50;5009903;28;19973;-80
2023/10/01 18:19:24;;;;;;;;;;;;;;;6.53;100.00;100363.03;5010328;28;19932;-83
2023/10/01 18:21:53;;;;;;;;;;;;;;;6.54;100.00;100356.84;5011131;28;20012;-80
2023/10/01 18:24:21;;;;;;;;;;;;;;;6.54;100.00;100367.38;5012120;28;20292;-79
2023/10/01 18:26:46;;;;;;;;;;;;;;;6.53;100.00;100365.66;5010879;28;19921;-79
2023/10/01 18:29:14;;;;;;;;;;;;;;;6.50;100.00;100366.56;5011290;28;19925;-80
2023/10/01 18:31:40;;;;;;;;;;;;;;;6.55;100.00;100367.34;5011387;28;20001;-81
2023/10/01 18:34:10;;;;;;;;;;;;;;;6.58;100.00;100369.06;5011695;28;20021;-85
2023/10/01 18:36:36;;;;;;;;;;;;;;;11.26;100.00;100376.09;5010580;28;20372;-82
2023/10/01 18:39:22;;;;;;;;;;;;;;;16.57;100.00;100351.16;5010734;28;19961;-80
2023/10/01 18:41:54;;;;;;;;;;;;;;;9.50;100.00;100355.31;5008933;28;19921;-81
2023/10/01 18:44:20;;;;;;;;;;;;;;;8.05;100.00;100377.56;5011647;28;19929;-86
2023/10/01 18:46:45;;;;;;;;;;;;;;;7.62;100.00;100381.13;5010987;28;19922;-80
2023/10/01 18:49:11;;;;;;;;;;;;;;;7.40;100.00;100372.81;5009391;28;19928;-77
2023/10/01 18:51:36;;;;;;;;;;;;;;;7.28;100.00;100376.56;5007776;28;19951;-80
2023/10/01 18:54:02;;;;;;;;;;;;;;;7.20;100.00;100375.84;5009700;28;19921;-81
2023/10/01 18:56:27;;;;;;;;;;;;;;;7.06;100.00;100374.34;5008029;28;20396;-78
2023/10/01 18:58:52;;;;;;;;;;;;;;;7.04;100.00;100383.19;5010945;28;19922;-80
2023/10/01 19:01:18;;;;;;;;;;;;;;;6.95;100.00;100375.44;5010767;28;19973;-80
2023/10/01 19:03:46;;;;;;;;;;;;;;;6.92;100.00;100381.63;5010853;28;20360;-78
2023/10/01 19:06:12;;;;;;;;;;;;;;;6.94;100.00;100387.75;5012287;28;19967;-81
2023/10/01 19:08:39;;;;;;;;;;;;;;;6.95;100.00;100386.00;5010472;28;20214;-80
2023/10/01 19:11:04;;;;;;;;;;;;;;;6.97;100.00;100389.44;5008401;28;19983;-78
2023/10/01 19:13:30;;;;;;;;;;;;;;;6.97;100.00;100382.41;5011284;28;19922;-81
2023/10/01 19:15:56;;;;;;;;;;;;;;;6.90;100.00;100380.81;5010640;28;19917;-82
2023/10/01 19:18:27;;;;;;;;;;;;;;;6.93;100.00;100385.16;5007915;28;19929;-80
2023/10/01 19:20:53;;;;;;;;;;;;;;;6.95;100.00;100383.34;5011972;28;20369;-81
2023/10/01 19:23:20;;;;;;;;;;;;;;;6.76;100.00;100380.19;5016002;28;20008;-80
2023/10/01 19:25:45;;;;;;;;;;;;;;;6.70;100.00;100378.50;5014929;28;20012;-79
2023/10/01 19:28:14;;;;;;;;;;;;;;;6.71;100.00;100380.25;5013775;28;20024;-82
2023/10/01 19:30:39;;;;;;;;;;;;;;;6.69;100.00;100380.28;5013187;28;19995;-79
2023/10/01 19:33:04;;;;;;;;;;;;;;;6.73;100.00;100383.72;5015326;28;20384;-81
2023/10/01 19:35:32;;;;;;;;;;;;;;;6.75;100.00;100381.97;5015106;28;20024;-81
2023/10/01 19:37:58;;;;;;;;;;;;;;;6.72;100.00;100382.00;5014227;28;19965;-80
2023/10/01 19:40:24;;;;;;;;;;;;;;;6.60;100.00;100383.06;5012217;28;19921;-81
2023/10/01 19:42:50;;;;;;;;;;;;;;;6.61;100.00;100382.19;5015257;28;20327;-81
2023/10/01 19:45:24;;;;;;;;;;;;;;;6.53;100.00;100373.56;5013344;28;19953;-79
2023/10/01 19:47:49;;;;;;;;;;;;;;;6.47;100.00;100371.88;5013409;28;19925;-79
2023/10/01 19:50:35;;;;;;;;;;;;;;;6.38;100.00;100371.16;5013532;28;19922;-80
2023/10/01 19:53:12;;;;;;;;;;;;;;;6.19;100.00;100371.47;5011503;28;19979;-77
2023/10/01 19:55:54;;;;;;;;;;;;;;;6.18;100.00;100369.72;5012140;28;20075;-78
2023/10/01 19:58:32;;;;;;;;;;;;;;;6.11;100.00;100368.06;5029087;28;19967;-78
2023/10/01 20:00:57;;;;;;;;;;;;;;;5.95;100.00;100373.53;5014933;28;20269;-78
2023/10/01 20:03:23;;;;;;;;;;;;;;;5.93;100.00;100370.03;5013656;28;19930;-79
2023/10/01 20:05:53;;;;;;;;;;;;;;;5.83;100.00;100384.22;5012968;28;20052;-80
2023/10/01 20:08:26;;;;;;;;;;;;;;;5.77;100.00;100384.31;5013975;28;19972;-83
2023/10/01 20:10:52;;;;;;;;;;;;;;;5.68;100.00;100374.81;5011073;28;19921;-78
2023/10/01 20:13:18;;;;;;;;;;;;;;;5.64;100.00;100379.22;5012319;28;19992;-78
2023/10/01 20:15:48;;;;;;;;;;;;;;;5.54;100.00;100374.97;5015236;28;19928;-77
2023/10/01 20:18:17;;;;;;;;;;;;;;;5.64;100.00;100376.56;5014862;28;19922;-78
2023/10/01 20:20:47;;;;;;;;;;;;;;;5.64;100.00;100373.09;5011906;28;20376;-77
2023/10/01 20:23:13;;;;;;;;;;;;;;;5.72;100.00;100370.38;5012809;28;19952;-78
2023/10/01 20:25:38;;;;;;;;;;;;;;;5.95;100.00;100376.19;5011722;28;19925;-77
2023/10/01 20:28:06;;;;;;;;;;;;;;;5.96;100.00;100366.50;5013425;28;19932;-78
2023/10/01 20:30:35;;;;;;;;;;;;;;;6.12;100.00;100377.72;5011986;28;19940;-79
2023/10/01 20:33:06;;;;;;;;;;;;;;;6.34;100.00;100375.63;5012754;28;19918;-81
2023/10/01 20:35:39;;;;;;;;;;;;;;;6.39;100.00;100372.91;5012849;28;19917;-78
2023/10/01 20:38:05;;;;;;;;;;;;;;;6.52;100.00;100366.53;5013477;28;20422;-79
2023/10/01 20:40:31;;;;;;;;;;;;;;;6.59;100.00;100365.56;5012689;28;19917;-79
2023/10/01 20:43:00;;;;;;;;;;;;;;;6.58;100.00;100369.06;5014789;28;19974;-79
2023/10/01 20:45:32;;;;;;;;;;;;;;;6.57;100.00;100372.59;5014548;28;19925;-82
2023/10/01 20:47:57;;;;;;;;;;;;;;;6.45;100.00;100367.56;5012759;28;20328;-79
2023/10/01 20:50:31;;;;;;;;;;;;;;;6.45;100.00;100359.66;5014680;28;20008;-80
2023/10/01 20:53:00;;;;;;;;;;;;;;;6.45;100.00;100357.03;5014313;28;19929;-79
2023/10/01 20:55:26;;;;;;;;;;;;;;;6.48;100.00;100356.97;5012020;28;19979;-79
2023/10/01 20:57:51;;;;;;;;;;;;;;;6.58;100.00;100366.44;5014527;28;19925;-81
2023/10/01 21:00:50;;;;;;;;;;;;;;;6.84;100.00;100354.56;5013696;28;20004;-80
2023/10/01 21:03:15;;;;;;;;;;;;;;;6.93;100.00;100359.66;5012737;28;19925;-79
2023/10/01 21:05:42;;;;;;;;;;;;;;;11.13;100.00;100357.09;5009049;28;19928;-80
2023/10/01 21:08:17;;;;;;;;;;;;;;;7.07;100.00;100355.00;5012702;28;19921;-80
2023/10/01 21:10:43;;;;;;;;;;;;;;;6.33;100.00;100350.19;5012134;28;19974;-79
2023/10/01 21:13:26;;;;;;;;;;;;;;;6.18;100.00;100343.41;5012289;28;19929;-77
2023/10/01 21:15:53;;;;;;;;;;;;;;;5.90;100.00;100342.94;5013129;28;19922;-79
2023/10/01 21:18:19;;;;;;;;;;;;;;;5.71;100.00;100340.59;5011245;28;19932;-78
2023/10/01 21:20:45;;;;;;;;;;;;;;;5.79;100.00;100340.44;5010656;28;19925;-78
2023/10/01 21:23:13;;;;;;;;;;;;;;;5.62;100.00;100333.69;5012255;28;19921;-80
2023/10/01 21:25:39;;;;;;;;;;;;;;;5.56;100.00;100333.75;5011919;28;19933;-80
2023/10/01 21:28:11;;;;;;;;;;;;;;;5.55;100.00;100336.41;5011794;28;20285;-81
2023/10/01 21:30:36;;;;;;;;;;;;;;;5.75;100.00;100333.50;5012678;28;19944;-79
2023/10/01 21:33:02;;;;;;;;;;;;;;;6.10;100.00;100343.53;5013717;28;20377;-81
2023/10/01 21:35:27;;;;;;;;;;;;;;;6.27;100.00;100342.38;5011805;28;19925;-83
2023/10/01 21:37:52;;;;;;;;;;;;;;;6.38;100.00;100347.47;5010809;28;19921;-79
2023/10/01 21:40:19;;;;;;;;;;;;;;;6.46;100.00;100348.22;5012559;28;19972;-84
2023/10/01 21:42:52;;;;;;;;;;;;;;;6.52;100.00;100342.84;5011570;28;19917;-83
2023/10/01 21:45:26;;;;;;;;;;;;;;;6.60;100.00;100351.47;5011658;28;19921;-80
2023/10/01 21:47:54;;;;;;;;;;;;;;;6.65;100.00;100346.13;5010814;28;19991;-82
2023/10/01 21:50:19;;;;;;;;;;;;;;;6.71;100.00;100352.16;5005625;28;20020;-82
2023/10/01 21:52:44;;;;;;;;;;;;;;;6.75;100.00;100350.34;5013198;28;20012;-80
2023/10/01 21:55:15;;;;;;;;;;;;;;;6.80;100.00;100350.28;5011288;28;19932;-80
2023/10/01 21:57:42;;;;;;;;;;;;;;;6.81;100.00;100352.88;5011689;28;19928;-79
2023/10/01 22:00:40;;;;;;;;;;;;;;;6.83;100.00;100350.19;5012130;28;19925;-78
2023/10/01 22:03:03;;;;;;;;;;;;;;;6.85;100.00;100351.91;5009118;28;19941;-81
2023/10/01 22:05:33;;;;;;;;;;;;;;;6.85;100.00;100343.16;5012132;28;20391;-79
2023/10/01 22:07:58;;;;;;;;;;;;;;;6.88;100.00;100343.94;5011015;28;19921;-79
2023/10/01 22:10:35;;;;;;;;;;;;;;;6.91;100.00;100343.03;5011772;28;19921;-78
2023/10/01 22:13:10;;;;;;;;;;;;;;;6.95;100.00;100342.06;5012569;28;19918;-78
2023/10/01 22:15:37;;;;;;;;;;;;;;;6.93;100.00;100338.59;5011936;28;19918;-83
2023/10/01 22:18:20;;;;;;;;;;;;;;;6.96;100.00;100332.41;5012970;28;19976;-80
2023/10/01 22:21:08;;;;;;;;;;;;;;;6.95;100.00;100331.53;5012014;28;19977;-86
2023/10/01 22:23:37;;;;;;;;;;;;;;;6.94;100.00;100331.53;5011362;28;19984;-78
2023/10/01 22:26:03;;;;;;;;;;;;;;;7.00;100.00;100339.34;5010253;28;20388;-81
2023/10/01 22:28:35;;;;;;;;;;;;;;;6.99;100.00;100343.75;5012458;28;19967;-79
2023/10/01 22:31:03;;;;;;;;;;;;;;;6.98;100.00;100342.00;5012649;28;19937;-81
2023/10/01 22:33:35;;;;;;;;;;;;;;;6.96;100.00;100338.53;5011477;28;19964;-81